Valley International Airport Harlingen US
ICAO: KHRL
IATA: HRL
Category: Medium
Scheduled Services: Yes

Elevation: 36 ft
TransAlt. 18000 ft.

Airport Communications:
APP/DEP:120.7
ATIS:124.85
CTAF:119.3
GND:121.7
SAN ANGELO RDO:122.35
TWR:119.3
UNICOM:122.95

KHRL Zoom In..

If you have problems with the map follow the link
https://www.worldairports.se/pages/airport.php?
ICAO=KHRL

Runways:

(A) RW 13 length 7257 ft width 150 ft
---- / hdg 131

(B) RW 17L length 5949 ft width 150 ft
---- / hdg 176

(C) RW 17R length 8301 ft width 150 ft
ILS 111.50 / hdg 176

(D) RW 31 length 7257 ft width 150 ft
---- / hdg 311

(E) RW 35L length 8301 ft width 150 ft
---- / hdg 356

(F) RW 35R length 5949 ft width 150 ft
---- / hdg 356

Location; KHRL
Day. 23 / Time. 17.40 Zulu
* Altimeter: 30.11
* Temperature: 17° c. 62.6°f.
* Wind from: 330° Speed 13 kn.
Dewpoint: 13° c.
Visibility: 10 Statute Miles.
Clouds: Overcast 1300 ft.

KHRL 231740Z 33013KT 10SM OVC013 17/13 A3011 RMK AO2 T01670133


Wind From 330°
Speed 13 kn.

 
 
jpsmedia.com for Web Design worldairports.se 2018   terms of use